createdAt,value
2016-12-30T00:00:05.653Z,0
2016-12-30T00:00:47.133Z,0
2016-12-30T00:01:27.647Z,0
2016-12-30T00:02:08.123Z,0
2016-12-30T00:02:49.517Z,0
2016-12-30T00:03:30.029Z,0
2016-12-30T00:04:10.473Z,0
2016-12-30T00:04:51.005Z,0
2016-12-30T00:05:32.136Z,0
2016-12-30T00:06:12.592Z,0
2016-12-30T00:06:53.089Z,0
2016-12-30T00:07:33.582Z,0
2016-12-30T00:08:14.032Z,0
2016-12-30T00:08:54.481Z,0
2016-12-30T00:09:34.971Z,0
2016-12-30T00:10:15.427Z,0
2016-12-30T00:10:55.935Z,0
2016-12-30T00:11:36.454Z,0
2016-12-30T00:12:16.850Z,0
2016-12-30T00:12:58.232Z,0
2016-12-30T00:13:42.344Z,0
2016-12-30T00:14:23.342Z,0
2016-12-30T00:15:04.608Z,0
2016-12-30T00:15:45.143Z,0
2016-12-30T00:16:25.591Z,0
2016-12-30T00:17:06.039Z,0
2016-12-30T00:17:46.560Z,0
2016-12-30T00:18:27.041Z,0
2016-12-30T00:19:08.281Z,0
2016-12-30T00:19:48.742Z,0
2016-12-30T00:20:29.761Z,0
2016-12-30T00:21:10.268Z,0
2016-12-30T00:21:50.732Z,0
2016-12-30T00:22:31.227Z,0
2016-12-30T00:23:11.724Z,0
2016-12-30T00:23:52.263Z,0
2016-12-30T00:24:32.775Z,0
2016-12-30T00:25:13.234Z,0
2016-12-30T00:25:53.720Z,0
2016-12-30T00:26:34.192Z,0
2016-12-30T00:27:14.725Z,0
2016-12-30T00:27:55.189Z,0
2016-12-30T00:28:35.680Z,0
2016-12-30T00:29:16.158Z,0
2016-12-30T00:29:56.616Z,0
2016-12-30T00:30:37.239Z,0
2016-12-30T00:31:17.706Z,0
2016-12-30T00:31:58.825Z,0
2016-12-30T00:32:39.319Z,0
2016-12-30T00:33:19.846Z,0
2016-12-30T00:34:00.231Z,0
2016-12-30T00:34:42.522Z,0
2016-12-30T00:35:23.620Z,0
2016-12-30T00:36:05.732Z,0
2016-12-30T00:36:46.199Z,0
2016-12-30T00:37:26.681Z,0
2016-12-30T00:38:07.820Z,0
2016-12-30T00:38:48.373Z,0
2016-12-30T00:39:29.793Z,0
2016-12-30T00:40:10.244Z,0
2016-12-30T00:40:50.705Z,0
2016-12-30T00:41:31.204Z,0
2016-12-30T00:42:13.247Z,0
2016-12-30T00:42:53.758Z,0
2016-12-30T00:43:34.197Z,0
2016-12-30T00:44:14.635Z,0
2016-12-30T00:44:55.143Z,0
2016-12-30T00:45:35.607Z,0
2016-12-30T00:46:16.072Z,0
2016-12-30T00:46:56.547Z,0
2016-12-30T00:47:37.686Z,0
2016-12-30T00:48:18.163Z,0
2016-12-30T00:48:59.476Z,0
2016-12-30T00:49:39.905Z,0
2016-12-30T00:50:21.748Z,0
2016-12-30T00:51:02.241Z,0
2016-12-30T00:51:42.720Z,0
2016-12-30T00:52:23.244Z,0
2016-12-30T00:53:03.685Z,0
2016-12-30T00:53:44.295Z,0
2016-12-30T00:54:24.791Z,0
2016-12-30T00:55:05.294Z,0
2016-12-30T00:55:45.752Z,0
2016-12-30T00:56:26.208Z,0
2016-12-30T00:57:06.699Z,0
2016-12-30T00:57:47.176Z,0
2016-12-30T00:58:27.704Z,0
2016-12-30T00:59:08.139Z,0
2016-12-30T00:59:49.154Z,0
2016-12-30T01:00:29.683Z,0
2016-12-30T01:01:10.110Z,0
2016-12-30T01:01:50.603Z,0
2016-12-30T01:02:31.109Z,0
2016-12-30T01:03:11.562Z,0
2016-12-30T01:03:52.021Z,0
2016-12-30T01:04:32.500Z,0
2016-12-30T01:05:13.025Z,0
2016-12-30T01:05:53.481Z,0
2016-12-30T01:06:35.331Z,0
2016-12-30T01:07:15.820Z,0
2016-12-30T01:07:57.061Z,0
2016-12-30T01:08:40.152Z,0
2016-12-30T01:09:21.534Z,0
2016-12-30T01:10:02.047Z,0
2016-12-30T01:10:42.520Z,0
2016-12-30T01:11:22.983Z,0
2016-12-30T01:12:03.466Z,0
2016-12-30T01:12:43.924Z,0
2016-12-30T01:13:24.405Z,0
2016-12-30T01:14:04.895Z,0
2016-12-30T01:14:45.419Z,0
2016-12-30T01:15:25.887Z,0
2016-12-30T01:16:06.377Z,0
2016-12-30T01:16:46.949Z,0
2016-12-30T01:17:30.242Z,0
2016-12-30T01:18:10.739Z,0
2016-12-30T01:18:51.202Z,0
2016-12-30T01:19:33.307Z,0
2016-12-30T01:20:13.808Z,0
2016-12-30T01:20:54.859Z,0
2016-12-30T01:21:35.945Z,0
2016-12-30T01:22:16.387Z,0
2016-12-30T01:22:56.881Z,0
2016-12-30T01:23:38.966Z,0
2016-12-30T01:24:20.095Z,0
2016-12-30T01:25:00.538Z,0
2016-12-30T01:25:41.813Z,0
2016-12-30T01:26:23.111Z,0
2016-12-30T01:27:04.325Z,0
2016-12-30T01:27:45.456Z,0
2016-12-30T01:28:26.420Z,0
2016-12-30T01:29:07.483Z,0
2016-12-30T01:29:50.335Z,0
2016-12-30T01:30:30.840Z,0
2016-12-30T01:31:11.275Z,0
2016-12-30T01:31:53.653Z,0
2016-12-30T01:32:34.117Z,0
2016-12-30T01:33:14.608Z,0
2016-12-30T01:33:55.081Z,0
2016-12-30T01:34:35.567Z,0
2016-12-30T01:35:16.019Z,0
2016-12-30T01:35:57.990Z,0
2016-12-30T01:36:38.426Z,0
2016-12-30T01:37:18.871Z,0
2016-12-30T01:37:59.412Z,0
2016-12-30T01:38:42.252Z,0
2016-12-30T01:41:07.504Z,0
2016-12-30T01:41:56.299Z,0
2016-12-30T01:42:46.686Z,0
2016-12-30T01:43:36.169Z,0
2016-12-30T01:44:25.771Z,0
2016-12-30T01:45:14.419Z,0
2016-12-30T01:46:02.633Z,0
2016-12-30T01:46:54.165Z,0
2016-12-30T01:47:42.873Z,0
2016-12-30T01:48:31.898Z,0
2016-12-30T01:49:21.784Z,0
2016-12-30T01:50:10.633Z,0
2016-12-30T01:50:58.961Z,0
2016-12-30T01:51:47.703Z,0
2016-12-30T01:52:36.295Z,0
2016-12-30T01:53:25.543Z,0
2016-12-30T01:54:15.687Z,0
2016-12-30T01:55:04.608Z,0
2016-12-30T01:55:53.461Z,0
2016-12-30T01:56:41.691Z,0
2016-12-30T01:57:30.527Z,0
2016-12-30T01:58:19.056Z,0
2016-12-30T01:59:07.759Z,0
2016-12-30T01:59:56.952Z,0
2016-12-30T02:00:45.543Z,0
2016-12-30T02:01:34.397Z,0
2016-12-30T02:02:22.771Z,0
2016-12-30T02:03:13.513Z,0
2016-12-30T02:04:02.141Z,0
2016-12-30T02:04:50.572Z,0
2016-12-30T02:05:39.838Z,0
2016-12-30T02:06:28.490Z,0
2016-12-30T02:07:17.369Z,0
2016-12-30T02:08:06.055Z,0
2016-12-30T02:08:54.428Z,0
2016-12-30T02:09:43.540Z,0
2016-12-30T02:12:05.078Z,0
2016-12-30T02:12:53.228Z,0
2016-12-30T02:13:41.557Z,0
2016-12-30T02:14:30.128Z,0
2016-12-30T02:15:18.106Z,0
2016-12-30T02:16:06.325Z,0
2016-12-30T02:16:55.122Z,0
2016-12-30T02:17:43.550Z,0
2016-12-30T02:18:32.236Z,0
2016-12-30T02:19:21.029Z,0
2016-12-30T02:20:09.537Z,0
2016-12-30T02:20:57.879Z,0
2016-12-30T02:21:46.571Z,0
2016-12-30T02:22:35.581Z,0
2016-12-30T02:23:23.818Z,0
2016-12-30T02:24:12.621Z,0
2016-12-30T02:25:01.341Z,0
2016-12-30T02:25:50.164Z,0
2016-12-30T02:26:38.950Z,0
2016-12-30T02:27:27.871Z,0
2016-12-30T02:28:16.189Z,0
2016-12-30T02:29:04.792Z,0
2016-12-30T02:29:53.678Z,0
2016-12-30T02:30:42.288Z,0
2016-12-30T02:31:31.139Z,0
2016-12-30T02:32:19.377Z,0
2016-12-30T02:33:08.118Z,0
2016-12-30T02:33:56.967Z,0
2016-12-30T02:34:45.789Z,0
2016-12-30T02:35:34.162Z,0
2016-12-30T02:36:22.670Z,0
2016-12-30T02:37:11.279Z,0
2016-12-30T02:37:59.962Z,0
2016-12-30T02:38:48.785Z,0
2016-12-30T02:39:37.473Z,0
2016-12-30T02:40:25.715Z,0
2016-12-30T02:41:14.984Z,0
2016-12-30T02:42:03.185Z,0
2016-12-30T02:42:51.891Z,0
2016-12-30T02:43:40.636Z,0
2016-12-30T02:44:29.222Z,0
2016-12-30T02:45:17.800Z,0
2016-12-30T02:45:59.271Z,0
2016-12-30T02:46:39.767Z,0
2016-12-30T02:47:20.228Z,0
2016-12-30T02:48:00.748Z,0
2016-12-30T02:48:41.221Z,0
2016-12-30T02:49:21.651Z,0
2016-12-30T02:50:02.150Z,0
2016-12-30T02:50:42.620Z,0
2016-12-30T02:51:23.110Z,0
2016-12-30T02:52:03.542Z,0
2016-12-30T02:52:44.036Z,0
2016-12-30T02:53:25.183Z,0
2016-12-30T02:54:05.697Z,0
2016-12-30T02:54:46.153Z,0
2016-12-30T02:55:26.646Z,0
2016-12-30T02:56:07.122Z,0
2016-12-30T02:56:47.604Z,0
2016-12-30T02:57:28.106Z,0
2016-12-30T02:58:08.593Z,0
2016-12-30T02:58:49.081Z,0
2016-12-30T02:59:29.569Z,0
2016-12-30T03:00:10.019Z,0
2016-12-30T03:00:50.468Z,0
2016-12-30T03:01:30.996Z,0
2016-12-30T03:02:11.491Z,0
2016-12-30T03:02:51.906Z,0
2016-12-30T03:03:32.395Z,0
2016-12-30T03:04:12.853Z,0
2016-12-30T03:04:53.402Z,0
2016-12-30T03:05:33.877Z,0
2016-12-30T03:06:14.322Z,0
2016-12-30T03:06:54.800Z,0
2016-12-30T03:07:35.266Z,0
2016-12-30T03:08:15.724Z,0
2016-12-30T03:08:56.250Z,0
2016-12-30T03:09:36.742Z,0
2016-12-30T03:10:17.180Z,0
2016-12-30T03:10:57.713Z,0
2016-12-30T03:11:38.990Z,0
2016-12-30T03:12:19.426Z,0
2016-12-30T03:12:59.943Z,0
2016-12-30T03:13:40.477Z,0
2016-12-30T03:14:21.766Z,0
2016-12-30T03:15:02.389Z,0
2016-12-30T03:15:43.750Z,0
2016-12-30T03:16:24.260Z,0
2016-12-30T03:17:04.715Z,0
2016-12-30T03:17:45.233Z,0
2016-12-30T03:18:25.707Z,0
2016-12-30T03:19:06.951Z,0
2016-12-30T03:19:47.437Z,0
2016-12-30T03:20:27.954Z,0
2016-12-30T03:21:08.405Z,0
2016-12-30T03:21:48.864Z,0
2016-12-30T03:22:29.344Z,0
2016-12-30T03:23:10.449Z,0
2016-12-30T03:23:50.955Z,0
2016-12-30T03:24:31.428Z,0
2016-12-30T03:25:11.869Z,0
2016-12-30T03:25:52.365Z,0
2016-12-30T03:26:32.845Z,0
2016-12-30T03:27:14.074Z,0
2016-12-30T03:27:54.553Z,0
2016-12-30T03:28:35.038Z,0
2016-12-30T03:29:15.520Z,0
2016-12-30T03:29:56.006Z,0
2016-12-30T03:30:36.542Z,0
2016-12-30T03:31:17.601Z,0
2016-12-30T03:31:58.067Z,0
2016-12-30T03:32:38.540Z,0
2016-12-30T03:33:19.693Z,0
2016-12-30T03:34:00.153Z,0
2016-12-30T03:34:40.661Z,0
2016-12-30T03:35:21.146Z,0
2016-12-30T03:36:01.644Z,0
2016-12-30T03:36:42.101Z,0
2016-12-30T03:37:22.604Z,0
2016-12-30T03:38:03.033Z,0
2016-12-30T03:38:43.520Z,0
2016-12-30T03:39:23.978Z,0
2016-12-30T03:40:05.548Z,0
2016-12-30T03:40:46.979Z,0
2016-12-30T03:42:52.660Z,0
2016-12-30T03:43:40.837Z,0
2016-12-30T03:44:29.672Z,0
2016-12-30T03:45:18.208Z,0
2016-12-30T03:46:06.762Z,0
2016-12-30T03:46:55.371Z,0
2016-12-30T03:47:44.236Z,0
2016-12-30T03:48:33.092Z,0
2016-12-30T03:49:21.533Z,0
2016-12-30T03:50:10.283Z,0
2016-12-30T03:50:59.123Z,0
2016-12-30T03:51:47.248Z,0
2016-12-30T03:52:35.967Z,0
2016-12-30T03:53:24.723Z,0
2016-12-30T03:54:13.557Z,0
2016-12-30T03:55:01.795Z,0
2016-12-30T03:55:50.836Z,0
2016-12-30T03:56:39.669Z,0
2016-12-30T03:57:28.039Z,0
2016-12-30T03:58:16.785Z,0
2016-12-30T03:59:05.030Z,0
2016-12-30T03:59:53.645Z,0
2016-12-30T04:00:42.421Z,0
2016-12-30T04:01:31.042Z,0
2016-12-30T04:02:20.131Z,0
2016-12-30T04:03:08.291Z,0
2016-12-30T04:03:56.920Z,0
2016-12-30T04:04:45.844Z,0
2016-12-30T04:05:34.552Z,0
2016-12-30T04:06:23.693Z,0
2016-12-30T04:07:12.433Z,0
2016-12-30T04:08:00.957Z,0
2016-12-30T04:08:50.116Z,0
2016-12-30T04:09:38.336Z,0
2016-12-30T04:10:26.883Z,0
2016-12-30T04:11:16.064Z,0
2016-12-30T04:12:04.389Z,0
2016-12-30T04:12:53.132Z,0
2016-12-30T04:13:42.159Z,0
2016-12-30T04:14:30.686Z,0
2016-12-30T04:15:18.947Z,0
2016-12-30T04:16:08.086Z,0
2016-12-30T04:16:56.363Z,0
2016-12-30T04:17:45.194Z,0
2016-12-30T04:18:34.094Z,0
2016-12-30T04:19:22.780Z,0
2016-12-30T04:20:10.967Z,0
2016-12-30T04:20:59.798Z,0
2016-12-30T04:21:48.768Z,0
2016-12-30T04:22:36.954Z,0
2016-12-30T04:23:26.182Z,0
2016-12-30T04:24:14.186Z,0
2016-12-30T04:25:02.962Z,0
2016-12-30T04:25:51.596Z,0
2016-12-30T04:26:40.612Z,0
2016-12-30T04:27:29.349Z,0
2016-12-30T04:28:17.877Z,0
2016-12-30T04:29:07.074Z,0
2016-12-30T04:29:55.437Z,0
2016-12-30T04:30:44.093Z,0
2016-12-30T04:31:33.152Z,0
2016-12-30T04:32:21.421Z,0
2016-12-30T04:33:10.276Z,0
2016-12-30T04:33:58.703Z,0
2016-12-30T04:34:47.585Z,0
2016-12-30T04:35:36.030Z,0
2016-12-30T04:36:24.726Z,0
2016-12-30T04:37:13.319Z,0
2016-12-30T04:38:01.985Z,0
2016-12-30T04:38:50.636Z,0
2016-12-30T04:39:39.209Z,0
2016-12-30T04:40:28.164Z,0
2016-12-30T04:41:16.759Z,0
2016-12-30T04:42:05.672Z,0
2016-12-30T04:42:54.223Z,0
2016-12-30T04:43:42.775Z,0
2016-12-30T04:44:31.604Z,0
2016-12-30T04:45:20.403Z,0
2016-12-30T04:47:41.564Z,0
2016-12-30T04:48:29.941Z,0
2016-12-30T04:49:18.790Z,0
2016-12-30T04:50:07.621Z,0
2016-12-30T04:50:55.967Z,0
2016-12-30T04:51:44.334Z,0
2016-12-30T04:52:32.927Z,0
2016-12-30T04:53:21.512Z,0
2016-12-30T04:54:10.680Z,0
2016-12-30T04:54:59.477Z,0
2016-12-30T04:55:47.661Z,0
2016-12-30T04:56:36.306Z,0
2016-12-30T04:57:24.905Z,0
2016-12-30T04:58:13.515Z,0
2016-12-30T04:59:02.704Z,0
2016-12-30T04:59:49.778Z,0
2016-12-30T05:00:38.243Z,0
2016-12-30T05:01:27.130Z,0
2016-12-30T05:02:15.409Z,0
2016-12-30T05:03:04.267Z,0
2016-12-30T05:03:53.215Z,0
2016-12-30T05:04:41.364Z,0
2016-12-30T05:05:30.004Z,0
2016-12-30T05:06:18.737Z,0
2016-12-30T05:07:07.748Z,0
2016-12-30T05:07:56.033Z,0
2016-12-30T05:08:44.777Z,0
2016-12-30T05:09:33.576Z,0
2016-12-30T05:10:22.007Z,0
2016-12-30T05:11:10.704Z,0
2016-12-30T05:11:59.315Z,0
2016-12-30T05:12:47.978Z,0
2016-12-30T05:13:36.792Z,0
2016-12-30T05:14:25.415Z,0
2016-12-30T05:15:13.903Z,0
2016-12-30T05:16:02.578Z,0
2016-12-30T05:16:51.716Z,0
2016-12-30T05:17:40.030Z,0
2016-12-30T05:18:29.069Z,0
2016-12-30T05:19:17.679Z,0
2016-12-30T05:20:06.257Z,0
2016-12-30T05:20:55.031Z,0
2016-12-30T05:21:43.907Z,0
2016-12-30T05:22:31.982Z,0
2016-12-30T05:23:21.128Z,0
2016-12-30T05:24:09.786Z,0
2016-12-30T05:24:58.689Z,0
2016-12-30T05:25:46.965Z,0
2016-12-30T05:26:35.496Z,0
2016-12-30T05:27:24.333Z,0
2016-12-30T05:28:05.822Z,0
2016-12-30T05:28:46.339Z,0
2016-12-30T05:29:26.833Z,0
2016-12-30T05:30:07.334Z,0
2016-12-30T05:30:47.776Z,0
2016-12-30T05:31:28.244Z,0
2016-12-30T05:32:08.712Z,0
2016-12-30T05:32:49.179Z,0
2016-12-30T05:33:29.665Z,0
2016-12-30T05:34:10.123Z,0
2016-12-30T05:34:50.654Z,0
2016-12-30T05:35:31.131Z,0
2016-12-30T05:36:11.585Z,0
2016-12-30T05:36:52.116Z,0
2016-12-30T05:37:32.544Z,0
2016-12-30T05:38:13.052Z,0
2016-12-30T05:38:53.476Z,0
2016-12-30T05:39:33.949Z,0
2016-12-30T05:40:14.469Z,0
2016-12-30T05:40:55.830Z,0
2016-12-30T05:41:36.334Z,0
2016-12-30T05:42:16.832Z,0
2016-12-30T05:42:58.112Z,0
2016-12-30T05:43:38.582Z,0
2016-12-30T05:44:19.106Z,0
2016-12-30T05:44:59.581Z,0
2016-12-30T05:45:40.626Z,0
2016-12-30T05:46:21.073Z,0
2016-12-30T05:47:01.561Z,0
2016-12-30T05:47:42.072Z,0
2016-12-30T05:48:24.174Z,0
2016-12-30T05:49:04.682Z,0
2016-12-30T05:49:45.746Z,0
2016-12-30T05:50:26.204Z,0
2016-12-30T05:51:08.623Z,0
2016-12-30T05:51:49.832Z,0
2016-12-30T05:52:30.344Z,0
2016-12-30T05:53:10.876Z,0
2016-12-30T05:53:51.331Z,0
2016-12-30T05:54:31.815Z,0
2016-12-30T05:55:12.291Z,0
2016-12-30T05:55:52.701Z,0
2016-12-30T05:56:33.828Z,0
2016-12-30T05:57:14.314Z,0
2016-12-30T05:57:56.137Z,0
2016-12-30T05:58:36.646Z,0
2016-12-30T05:59:17.035Z,0
2016-12-30T05:59:57.532Z,0
2016-12-30T06:00:38.611Z,0
2016-12-30T06:01:19.109Z,0
2016-12-30T06:01:59.639Z,0
2016-12-30T06:02:40.725Z,0
2016-12-30T06:03:21.818Z,0
2016-12-30T06:04:02.366Z,0
2016-12-30T06:04:42.868Z,0
2016-12-30T06:05:23.413Z,0
2016-12-30T06:06:03.938Z,0
2016-12-30T06:06:46.233Z,0
2016-12-30T06:07:26.671Z,0
2016-12-30T06:08:07.156Z,0
2016-12-30T06:08:47.637Z,0
2016-12-30T06:09:28.078Z,0
2016-12-30T06:10:08.596Z,0
2016-12-30T06:10:49.935Z,0
2016-12-30T06:11:30.392Z,0
2016-12-30T06:12:10.920Z,0
2016-12-30T06:12:51.353Z,0
2016-12-30T06:13:31.802Z,0
2016-12-30T06:14:12.336Z,0
2016-12-30T06:14:52.768Z,0
2016-12-30T06:15:33.255Z,0
2016-12-30T06:16:13.757Z,0
2016-12-30T06:16:54.237Z,0
2016-12-30T06:17:34.713Z,0
2016-12-30T06:18:15.148Z,0
2016-12-30T06:18:55.615Z,0
2016-12-30T06:19:36.095Z,0
2016-12-30T06:20:16.599Z,0
2016-12-30T06:20:57.076Z,0
2016-12-30T06:21:37.566Z,0
2016-12-30T06:22:18.017Z,0
2016-12-30T06:22:58.536Z,0
2016-12-30T06:23:39.007Z,0
2016-12-30T06:24:19.461Z,0
2016-12-30T06:24:59.929Z,0
2016-12-30T06:25:40.445Z,0
2016-12-30T06:26:21.863Z,0
2016-12-30T06:27:02.410Z,0
2016-12-30T06:27:42.874Z,0
2016-12-30T06:28:24.156Z,0
2016-12-30T06:29:04.590Z,0
2016-12-30T06:29:46.019Z,0
2016-12-30T06:30:26.481Z,0
2016-12-30T06:31:07.837Z,0
2016-12-30T06:31:48.922Z,0
2016-12-30T06:32:30.354Z,0
2016-12-30T06:33:12.511Z,0
2016-12-30T06:33:52.984Z,0
2016-12-30T06:34:34.406Z,0
2016-12-30T06:35:16.413Z,0
2016-12-30T06:35:56.919Z,0
2016-12-30T06:36:37.402Z,0
2016-12-30T06:37:18.798Z,0
2016-12-30T06:37:59.343Z,0
2016-12-30T06:38:39.747Z,0
2016-12-30T06:39:20.923Z,0
2016-12-30T06:40:01.415Z,0
2016-12-30T06:40:41.838Z,0
2016-12-30T06:41:22.401Z,0
2016-12-30T06:42:02.819Z,0
2016-12-30T06:42:43.280Z,0
2016-12-30T06:43:23.816Z,0
2016-12-30T06:44:04.288Z,0
2016-12-30T06:44:44.781Z,0
2016-12-30T06:45:25.270Z,0
2016-12-30T06:46:05.775Z,0
2016-12-30T06:46:46.164Z,0
2016-12-30T06:47:27.317Z,0
2016-12-30T06:48:07.808Z,0
2016-12-30T06:48:48.343Z,0
2016-12-30T06:49:29.704Z,0
2016-12-30T06:50:10.271Z,0
2016-12-30T06:50:50.665Z,0
2016-12-30T06:51:31.144Z,0
2016-12-30T06:52:11.609Z,0
2016-12-30T06:52:53.027Z,0
2016-12-30T06:53:33.482Z,0
2016-12-30T06:54:13.949Z,0
2016-12-30T06:54:54.436Z,0
2016-12-30T06:55:34.925Z,0
2016-12-30T06:56:15.390Z,0
2016-12-30T06:56:56.442Z,0
2016-12-30T06:57:36.915Z,0
2016-12-30T06:58:17.429Z,0
2016-12-30T06:58:57.962Z,0
2016-12-30T06:59:38.442Z,0
2016-12-30T07:00:18.908Z,0
2016-12-30T07:00:59.354Z,0
2016-12-30T07:01:39.819Z,0
2016-12-30T07:02:20.317Z,0
2016-12-30T07:03:00.796Z,4
2016-12-30T07:03:41.256Z,4
2016-12-30T07:04:21.724Z,4
2016-12-30T07:05:02.233Z,0
2016-12-30T07:05:42.725Z,0
2016-12-30T07:06:23.173Z,0
2016-12-30T07:07:03.674Z,4
2016-12-30T07:07:44.130Z,4
2016-12-30T07:08:24.633Z,4
2016-12-30T07:09:05.111Z,0
2016-12-30T07:09:45.528Z,4
2016-12-30T07:10:26.070Z,4
2016-12-30T07:11:06.566Z,4
2016-12-30T07:11:47.039Z,4
2016-12-30T07:12:27.484Z,8
2016-12-30T07:13:07.960Z,4
2016-12-30T07:13:48.439Z,4
2016-12-30T07:14:28.913Z,8
2016-12-30T07:15:09.369Z,8
2016-12-30T07:15:49.933Z,8
2016-12-30T07:16:30.359Z,8
2016-12-30T07:17:10.866Z,12
2016-12-30T07:17:51.321Z,12
2016-12-30T07:18:31.759Z,12
2016-12-30T07:19:12.248Z,16
2016-12-30T07:19:52.730Z,16
2016-12-30T07:20:33.195Z,16
2016-12-30T07:21:13.668Z,20
2016-12-30T07:21:54.337Z,20
2016-12-30T07:22:34.751Z,24
2016-12-30T07:23:15.284Z,24
2016-12-30T07:23:55.823Z,28
2016-12-30T07:24:36.265Z,32
2016-12-30T07:25:16.744Z,32
2016-12-30T07:25:57.631Z,36
2016-12-30T07:26:39.430Z,40
2016-12-30T07:27:20.300Z,44
2016-12-30T07:28:00.867Z,48
2016-12-30T07:28:41.707Z,52
2016-12-30T07:29:22.380Z,56
2016-12-30T07:30:02.901Z,60
2016-12-30T07:30:43.444Z,64
2016-12-30T07:31:24.147Z,72
2016-12-30T07:32:04.605Z,76
2016-12-30T07:32:45.060Z,80
2016-12-30T07:33:25.714Z,88
2016-12-30T07:34:06.852Z,96
2016-12-30T07:34:47.321Z,104
2016-12-30T07:35:27.913Z,108
2016-12-30T07:36:08.365Z,116
2016-12-30T07:36:48.841Z,124
2016-12-30T07:37:29.583Z,132
2016-12-30T07:38:09.970Z,140
2016-12-30T07:38:50.679Z,148
2016-12-30T07:39:31.113Z,160
2016-12-30T07:40:12.435Z,168
2016-12-30T07:40:53.813Z,180
2016-12-30T07:41:34.312Z,184
2016-12-30T07:42:14.987Z,196
2016-12-30T07:42:55.781Z,204
2016-12-30T07:43:36.286Z,216
2016-12-30T07:44:16.955Z,228
2016-12-30T07:44:57.498Z,236
2016-12-30T07:45:38.036Z,248
2016-12-30T07:46:18.513Z,260
2016-12-30T07:46:58.948Z,272
2016-12-30T07:47:39.660Z,288
2016-12-30T07:48:20.412Z,296
2016-12-30T07:49:01.166Z,312
2016-12-30T07:49:41.759Z,324
2016-12-30T07:50:22.475Z,336
2016-12-30T07:51:03.387Z,348
2016-12-30T07:51:43.885Z,368
2016-12-30T07:52:24.651Z,380
2016-12-30T07:53:05.275Z,396
2016-12-30T07:53:45.793Z,408
2016-12-30T07:54:26.261Z,424
2016-12-30T07:55:07.143Z,440
2016-12-30T07:55:47.786Z,456
2016-12-30T07:56:28.559Z,476
2016-12-30T07:57:09.545Z,488
2016-12-30T07:57:50.052Z,504
2016-12-30T07:58:30.505Z,524
2016-12-30T07:59:11.030Z,536
2016-12-30T07:59:51.535Z,552
2016-12-30T08:00:31.997Z,568
2016-12-30T08:01:12.471Z,588
2016-12-30T08:01:52.909Z,604
2016-12-30T08:02:34.186Z,620
2016-12-30T08:03:14.648Z,636
2016-12-30T08:03:55.165Z,652
2016-12-30T08:04:35.626Z,668
2016-12-30T08:05:16.100Z,684
2016-12-30T08:05:56.539Z,700
2016-12-30T08:06:36.995Z,716
2016-12-30T08:07:17.498Z,732
2016-12-30T08:07:58.034Z,748
2016-12-30T08:08:38.491Z,764
2016-12-30T08:09:18.958Z,780
2016-12-30T08:09:59.428Z,800
2016-12-30T08:10:39.939Z,812
2016-12-30T08:11:20.390Z,828
2016-12-30T08:12:00.890Z,844
2016-12-30T08:12:41.400Z,860
2016-12-30T08:13:21.839Z,876
2016-12-30T08:14:02.308Z,888
2016-12-30T08:14:42.743Z,904
2016-12-30T08:15:23.218Z,920
2016-12-30T08:16:03.701Z,936
2016-12-30T08:16:44.235Z,952
2016-12-30T08:17:24.720Z,964
2016-12-30T08:18:05.213Z,976
2016-12-30T08:18:45.707Z,996
2016-12-30T08:19:26.231Z,1012
2016-12-30T08:20:06.621Z,1028
2016-12-30T08:20:47.096Z,1044
2016-12-30T08:21:27.559Z,1056
2016-12-30T08:22:08.065Z,1068
2016-12-30T08:22:48.540Z,1084
2016-12-30T08:23:29.020Z,1096
2016-12-30T08:24:09.458Z,1108
2016-12-30T08:24:49.933Z,1120
2016-12-30T08:25:30.444Z,1136
2016-12-30T08:26:10.859Z,1156
2016-12-30T08:26:51.331Z,1172
2016-12-30T08:27:31.835Z,1184
2016-12-30T08:28:12.328Z,1196
2016-12-30T08:28:52.769Z,1212
2016-12-30T08:29:33.321Z,1228
2016-12-30T08:30:13.769Z,1248
2016-12-30T08:30:54.263Z,1256
2016-12-30T08:31:34.782Z,1272
2016-12-30T08:32:15.283Z,1296
2016-12-30T08:32:55.711Z,1308
2016-12-30T08:33:36.203Z,1324
2016-12-30T08:34:16.658Z,1340
2016-12-30T08:34:57.154Z,1360
2016-12-30T08:35:37.643Z,1376
2016-12-30T08:36:18.117Z,1396
2016-12-30T08:36:58.563Z,1392
2016-12-30T08:37:39.042Z,1396
2016-12-30T08:38:19.526Z,1432
2016-12-30T08:39:00.034Z,1424
2016-12-30T08:39:40.484Z,1444
2016-12-30T08:40:20.919Z,1468
2016-12-30T08:41:01.447Z,1508
2016-12-30T08:41:41.894Z,1524
2016-12-30T08:42:22.372Z,1520
2016-12-30T08:43:02.861Z,1512
2016-12-30T08:43:43.346Z,1496
2016-12-30T08:44:23.806Z,1452
2016-12-30T08:45:04.270Z,1432
2016-12-30T08:45:44.847Z,1424
2016-12-30T08:46:25.292Z,1328
2016-12-30T08:47:05.794Z,1288
2016-12-30T08:47:46.272Z,1308
2016-12-30T08:48:26.731Z,1280
2016-12-30T08:49:07.202Z,1320
2016-12-30T08:49:47.755Z,1248
2016-12-30T08:50:28.243Z,1176
2016-12-30T08:51:08.643Z,1144
2016-12-30T08:51:49.122Z,1184
2016-12-30T08:52:29.632Z,1280
2016-12-30T08:53:10.070Z,1384
2016-12-30T08:53:50.540Z,1520
2016-12-30T08:54:31.065Z,1636
2016-12-30T08:55:11.514Z,1688
2016-12-30T08:55:52.002Z,1704
2016-12-30T08:56:32.529Z,1692
2016-12-30T08:57:13.021Z,1620
2016-12-30T08:57:53.468Z,1428
2016-12-30T08:58:33.963Z,1304
2016-12-30T08:59:14.507Z,1272
2016-12-30T08:59:54.983Z,1268
2016-12-30T09:00:35.429Z,1188
2016-12-30T09:01:15.886Z,1160
2016-12-30T09:01:56.450Z,1136
2016-12-30T09:02:36.926Z,1172
2016-12-30T09:03:17.424Z,1132
2016-12-30T09:03:57.921Z,1048
2016-12-30T09:04:38.322Z,952
2016-12-30T09:05:18.808Z,936
2016-12-30T09:05:59.233Z,928
2016-12-30T09:06:39.715Z,968
2016-12-30T09:07:20.232Z,984
2016-12-30T09:08:00.666Z,996
2016-12-30T09:08:41.120Z,1032
2016-12-30T09:09:21.645Z,936
2016-12-30T09:10:02.118Z,948
2016-12-30T09:10:42.544Z,924
2016-12-30T09:11:23.024Z,1004
2016-12-30T09:12:03.507Z,1200
2016-12-30T09:12:43.979Z,1212
2016-12-30T09:13:24.519Z,1080
2016-12-30T09:14:05.208Z,1044
2016-12-30T09:14:45.737Z,1024
2016-12-30T09:15:26.170Z,1096
2016-12-30T09:16:06.661Z,1120
2016-12-30T09:16:47.092Z,1108
2016-12-30T09:17:27.554Z,1160
2016-12-30T09:18:08.038Z,1196
2016-12-30T09:18:48.539Z,1232
2016-12-30T09:19:29.017Z,1332
2016-12-30T09:20:09.503Z,1268
2016-12-30T09:20:49.986Z,1324
2016-12-30T09:21:30.479Z,1368
2016-12-30T09:22:21.846Z,1344
2016-12-30T09:23:02.309Z,1416
2016-12-30T09:23:45.502Z,1500
2016-12-30T09:24:25.979Z,1356
2016-12-30T09:25:06.484Z,1360
2016-12-30T09:25:59.115Z,1408
2016-12-30T09:26:48.608Z,1568
2016-12-30T09:29:12.848Z,1816
2016-12-30T09:30:01.988Z,1732
2016-12-30T09:30:48.358Z,1560
2016-12-30T09:31:37.287Z,1644
2016-12-30T09:32:25.589Z,1604
2016-12-30T09:33:14.798Z,1544
2016-12-30T09:34:03.357Z,1596
2016-12-30T09:34:51.877Z,1824
2016-12-30T09:35:41.128Z,1852
2016-12-30T09:36:29.567Z,1712
2016-12-30T09:37:17.877Z,1716
2016-12-30T09:38:07.699Z,1560
2016-12-30T09:38:56.014Z,1640
2016-12-30T09:39:44.696Z,1664
2016-12-30T09:40:33.816Z,1768
2016-12-30T09:41:22.585Z,1844
2016-12-30T09:42:11.359Z,1800
2016-12-30T09:43:00.340Z,1640
2016-12-30T09:43:48.570Z,1824
2016-12-30T09:44:37.081Z,1992
2016-12-30T09:45:25.734Z,2116
2016-12-30T09:46:14.775Z,1744
2016-12-30T09:47:02.976Z,1632
2016-12-30T09:47:44.605Z,1456
2016-12-30T09:48:25.082Z,1460
2016-12-30T09:49:05.617Z,1492
2016-12-30T09:49:46.076Z,1612
2016-12-30T09:50:26.567Z,1496
2016-12-30T09:51:07.051Z,1612
2016-12-30T09:51:47.523Z,1688
2016-12-30T09:52:28.002Z,1560
2016-12-30T09:53:08.456Z,1556
2016-12-30T09:53:48.999Z,1660
2016-12-30T09:54:29.473Z,1716
2016-12-30T09:55:09.959Z,1708
2016-12-30T09:55:50.416Z,1860
2016-12-30T09:56:30.863Z,1900
2016-12-30T09:57:11.336Z,1872
2016-12-30T09:57:51.799Z,1800
2016-12-30T09:58:32.274Z,1872
2016-12-30T09:59:12.759Z,1884
2016-12-30T09:59:53.253Z,1880
2016-12-30T10:00:33.711Z,1688
2016-12-30T10:01:14.173Z,1712
2016-12-30T10:01:54.614Z,1712
2016-12-30T10:02:35.133Z,1684
2016-12-30T10:03:15.559Z,1756
2016-12-30T10:03:56.224Z,1896
2016-12-30T10:04:43.211Z,1672
2016-12-30T10:05:23.660Z,1564
2016-12-30T10:06:04.170Z,1656
2016-12-30T10:06:44.587Z,1772
2016-12-30T10:07:25.079Z,1760
2016-12-30T10:08:05.553Z,1768
2016-12-30T10:08:45.988Z,1952
2016-12-30T10:09:26.459Z,1732
2016-12-30T10:10:07.023Z,1612
2016-12-30T10:10:47.546Z,1572
2016-12-30T10:11:28.033Z,1600
2016-12-30T10:12:08.526Z,1700
2016-12-30T10:12:49.046Z,1756
2016-12-30T10:13:29.764Z,1736
2016-12-30T10:14:10.038Z,1724
2016-12-30T10:14:50.561Z,1528
2016-12-30T10:15:31.025Z,1536
2016-12-30T10:16:11.475Z,1528
2016-12-30T10:16:51.957Z,1572
2016-12-30T10:17:32.472Z,1732
2016-12-30T10:18:12.906Z,1740
2016-12-30T10:18:53.391Z,1804
2016-12-30T10:19:33.884Z,1872
2016-12-30T10:20:14.367Z,1956
2016-12-30T10:20:54.845Z,1924
2016-12-30T10:21:35.277Z,1824
2016-12-30T10:22:15.781Z,1720
2016-12-30T10:22:56.243Z,1888